createdAt,value
2022-09-22T00:01:29.043Z,100565.75
2022-09-22T00:04:00.341Z,100562.25
2022-09-22T00:06:36.980Z,100562.25
2022-09-22T00:09:06.387Z,100552.59
2022-09-22T00:11:45.951Z,100557.28
2022-09-22T00:14:15.610Z,100555.44
2022-09-22T00:16:46.729Z,100558.31
2022-09-22T00:19:21.375Z,100555.63
2022-09-22T00:21:48.846Z,100560.16
2022-09-22T00:24:17.360Z,100560.16
2022-09-22T00:26:44.698Z,100553.97
2022-09-22T00:29:12.647Z,100552.28
2022-09-22T00:31:41.930Z,100557.81
2022-09-22T00:34:17.122Z,100559.84
2022-09-22T00:36:44.779Z,100555.31
2022-09-22T00:39:13.510Z,100552.00
2022-09-22T00:41:44.730Z,100552.84
2022-09-22T00:44:26.783Z,100556.84
2022-09-22T00:47:02.693Z,100549.84
2022-09-22T00:50:19.177Z,100557.22
2022-09-22T00:52:58.787Z,100546.69
2022-09-22T00:55:52.287Z,100547.88
2022-09-22T00:58:23.678Z,100551.38
2022-09-22T01:00:51.014Z,100547.88
2022-09-22T01:03:26.252Z,100550.56
2022-09-22T01:06:01.718Z,100544.56
2022-09-22T01:08:31.423Z,100548.06
2022-09-22T01:10:59.498Z,100549.91
2022-09-22T01:13:39.295Z,100552.75
2022-09-22T01:16:30.622Z,100558.25
2022-09-22T01:19:22.941Z,100540.56
2022-09-22T01:22:14.486Z,100552.25
2022-09-22T01:25:23.638Z,100545.91
2022-09-22T01:28:38.447Z,100538.91
2022-09-22T01:31:41.851Z,100533.56
2022-09-22T01:34:52.635Z,100536.25
2022-09-22T01:37:36.528Z,100541.59
2022-09-22T01:40:09.388Z,100534.41
2022-09-22T01:43:42.783Z,100532.75
2022-09-22T01:46:31.025Z,100543.41
2022-09-22T01:49:03.150Z,100526.56
2022-09-22T01:51:39.366Z,100532.94
2022-09-22T01:54:24.796Z,100530.25
2022-09-22T01:57:01.195Z,100521.56
2022-09-22T01:59:31.730Z,100522.44
2022-09-22T02:02:12.619Z,100511.91
2022-09-22T02:04:49.178Z,100523.59
2022-09-22T02:07:25.138Z,100513.94
2022-09-22T02:09:53.126Z,100513.09
2022-09-22T02:12:20.219Z,100514.94
2022-09-22T02:14:47.451Z,100514.94
2022-09-22T02:17:15.855Z,100516.97
2022-09-22T02:19:42.979Z,100516.97
2022-09-22T02:22:12.179Z,100516.97
2022-09-22T02:24:44.166Z,100515.28
2022-09-22T02:27:25.604Z,100518.94
2022-09-22T02:30:08.247Z,100518.31
2022-09-22T02:32:38.850Z,100512.97
2022-09-22T02:35:07.531Z,100516.66
2022-09-22T02:38:16.474Z,100517.66
2022-09-22T02:41:18.487Z,100515.09
2022-09-22T02:43:59.282Z,100508.09
2022-09-22T02:46:40.567Z,100505.63
2022-09-22T02:49:15.758Z,100508.28
2022-09-22T02:51:43.437Z,100511.78
2022-09-22T02:54:10.337Z,100511.78
2022-09-22T02:56:37.320Z,100503.13
2022-09-22T02:59:04.294Z,100508.47
2022-09-22T03:01:31.265Z,100509.31
2022-09-22T03:03:58.220Z,100504.97
2022-09-22T03:06:25.178Z,100506.00
2022-09-22T03:08:52.196Z,100504.28
2022-09-22T03:11:19.143Z,100503.47
2022-09-22T03:13:46.121Z,100499.97
2022-09-22T03:16:13.318Z,100496.66
2022-09-22T03:18:40.337Z,100492.31
2022-09-22T03:21:07.813Z,100491.50
2022-09-22T03:23:34.722Z,100495.19
2022-09-22T03:26:01.699Z,100497.00
2022-09-22T03:35:53.414Z,100490.34
2022-09-22T03:38:20.325Z,100485.19
2022-09-22T03:40:52.614Z,100491.38
2022-09-22T03:43:20.474Z,100486.84
2022-09-22T03:45:47.480Z,100491.38
2022-09-22T03:48:14.565Z,100487.88
2022-09-22T03:50:41.482Z,100488.84
2022-09-22T03:53:08.420Z,100488.19
2022-09-22T03:55:35.360Z,100480.19
2022-09-22T03:58:03.719Z,100480.38
2022-09-22T04:00:30.681Z,100479.72
2022-09-22T04:02:58.559Z,100483.38
2022-09-22T04:05:26.717Z,100471.03
2022-09-22T04:07:53.755Z,100470.41
2022-09-22T04:10:21.250Z,100476.75
2022-09-22T04:12:48.481Z,100480.41
2022-09-22T04:15:15.583Z,100468.91
2022-09-22T04:17:42.496Z,100477.06
2022-09-22T04:20:11.775Z,100478.09
2022-09-22T04:22:39.248Z,100478.44
2022-09-22T04:25:07.699Z,100481.13
2022-09-22T04:27:34.595Z,100472.47
2022-09-22T04:30:01.516Z,100472.78
2022-09-22T04:32:28.465Z,100475.63
2022-09-22T04:34:55.457Z,100475.97
2022-09-22T04:37:22.354Z,100477.97
2022-09-22T04:39:50.274Z,100477.16
2022-09-22T04:42:17.197Z,100468.66
2022-09-22T04:44:44.400Z,100470.50
2022-09-22T04:47:11.335Z,100468.00
2022-09-22T04:49:38.370Z,100478.19
2022-09-22T04:52:05.421Z,100473.84
2022-09-22T04:54:32.525Z,100473.19
2022-09-22T04:56:59.486Z,100473.38
2022-09-22T04:59:26.513Z,100471.88
2022-09-22T05:01:53.549Z,100476.53
2022-09-22T05:04:21.020Z,100477.53
2022-09-22T05:06:47.989Z,100476.91
2022-09-22T05:09:15.393Z,100479.56
2022-09-22T05:11:42.314Z,100486.88
2022-09-22T05:14:09.375Z,100483.56
2022-09-22T05:16:36.876Z,100481.91
2022-09-22T05:19:03.916Z,100484.75
2022-09-22T05:21:31.008Z,100489.25
2022-09-22T05:23:58.020Z,100494.91
2022-09-22T05:26:25.290Z,100498.56
2022-09-22T05:28:52.207Z,100491.59
2022-09-22T05:31:19.697Z,100490.94
2022-09-22T05:33:46.633Z,100501.75
2022-09-22T05:36:13.625Z,100497.28
2022-09-22T05:38:40.569Z,100491.25
2022-09-22T05:41:07.876Z,100491.44
2022-09-22T05:43:34.902Z,100500.44
2022-09-22T05:46:01.910Z,100497.75
2022-09-22T05:48:31.178Z,100506.59
2022-09-22T05:50:58.877Z,100500.44
2022-09-22T05:53:25.863Z,100497.75
2022-09-22T05:55:52.869Z,100494.28
2022-09-22T05:58:20.449Z,100492.44
2022-09-22T06:00:47.596Z,100501.25
2022-09-22T06:03:14.665Z,100494.28
2022-09-22T06:05:41.866Z,100495.94
2022-09-22T06:08:08.988Z,100491.59
2022-09-22T06:10:38.630Z,100499.59
2022-09-22T06:13:08.729Z,100500.44
2022-09-22T06:15:36.416Z,100494.28
2022-09-22T06:18:09.120Z,100498.59
2022-09-22T06:20:38.886Z,100501.25
2022-09-22T06:23:06.263Z,100505.59
2022-09-22T06:25:33.202Z,100514.41
2022-09-22T06:28:08.049Z,100508.91
2022-09-22T06:30:38.052Z,100510.59
2022-09-22T06:33:04.949Z,100512.91
2022-09-22T06:35:37.449Z,100510.06
2022-09-22T06:38:09.825Z,100514.91
2022-09-22T06:40:36.836Z,100514.22
2022-09-22T06:43:09.964Z,100516.22
2022-09-22T06:45:36.991Z,100525.38
2022-09-22T06:48:08.973Z,100506.00
2022-09-22T06:50:37.579Z,100515.13
2022-09-22T06:53:07.328Z,100511.59
2022-09-22T06:55:35.926Z,100509.09
2022-09-22T06:58:03.148Z,100505.56
2022-09-22T07:00:32.782Z,100509.03
2022-09-22T07:03:20.737Z,100507.16
2022-09-22T07:06:00.898Z,100509.66
2022-09-22T07:08:30.752Z,100508.78
2022-09-22T07:11:01.798Z,100509.72
2022-09-22T07:13:30.974Z,100509.50
2022-09-22T07:16:05.696Z,100505.09
2022-09-22T07:18:32.707Z,100494.38
2022-09-22T07:21:08.642Z,100505.00
2022-09-22T07:23:36.497Z,100502.25
2022-09-22T07:26:10.217Z,100504.88
2022-09-22T07:28:37.719Z,100500.47
2022-09-22T07:31:10.869Z,100503.91
2022-09-22T07:33:40.251Z,100499.50
2022-09-22T07:36:12.937Z,100498.41
2022-09-22T07:38:42.164Z,100503.69
2022-09-22T07:41:14.905Z,100488.41
2022-09-22T07:43:42.406Z,100497.81
2022-09-22T07:46:09.567Z,100502.22
2022-09-22T07:48:37.730Z,100496.63
2022-09-22T07:51:12.866Z,100493.84
2022-09-22T07:53:42.713Z,100503.31
2022-09-22T07:56:13.375Z,100499.84
2022-09-22T07:58:52.267Z,100503.28
2022-09-22T08:01:22.423Z,100503.38
2022-09-22T08:03:50.715Z,100500.56
2022-09-22T08:06:20.212Z,100510.53
2022-09-22T08:08:53.623Z,100508.75
2022-09-22T08:11:24.260Z,100510.31
2022-09-22T08:13:56.034Z,100519.91
2022-09-22T08:16:28.788Z,100513.59
2022-09-22T08:18:57.850Z,100511.63
2022-09-22T08:21:26.676Z,100501.59
2022-09-22T08:23:54.297Z,100505.00
2022-09-22T08:26:21.994Z,100507.34
2022-09-22T08:28:55.015Z,100503.69
2022-09-22T08:31:24.436Z,100502.56
2022-09-22T08:33:52.842Z,100507.78
2022-09-22T08:36:20.681Z,100494.03
2022-09-22T08:38:49.551Z,100493.94
2022-09-22T08:41:21.814Z,100497.28
2022-09-22T08:43:55.534Z,100496.09
2022-09-22T08:46:29.404Z,100498.22
2022-09-22T08:49:36.938Z,100508.44
2022-09-22T08:52:38.754Z,100494.22
2022-09-22T08:55:15.887Z,100495.94
2022-09-22T08:57:59.226Z,100493.69
2022-09-22T09:00:34.650Z,100498.50
2022-09-22T09:03:36.242Z,100493.56
2022-09-22T09:06:21.140Z,100495.06
2022-09-22T09:09:25.560Z,100502.34
2022-09-22T09:12:19.697Z,100495.34
2022-09-22T09:15:29.088Z,100498.25
2022-09-22T09:18:03.005Z,100497.06
2022-09-22T09:20:44.897Z,100496.63
2022-09-22T09:23:24.721Z,100492.91
2022-09-22T09:25:55.582Z,100489.63
2022-09-22T09:28:44.061Z,100493.75
2022-09-22T09:31:36.476Z,100501.81
2022-09-22T09:34:13.338Z,100496.66
2022-09-22T09:36:45.478Z,100491.25
2022-09-22T09:39:22.798Z,100495.00
2022-09-22T09:41:50.898Z,100496.63
2022-09-22T09:44:30.338Z,100500.34
2022-09-22T09:47:19.398Z,100499.94
2022-09-22T09:49:52.683Z,100490.19
2022-09-22T09:52:20.926Z,100486.66
2022-09-22T09:54:48.635Z,100489.53
2022-09-22T09:57:18.364Z,100483.72
2022-09-22T10:00:06.703Z,100484.75
2022-09-22T10:02:50.485Z,100483.47
2022-09-22T10:05:17.253Z,100486.13
2022-09-22T10:07:48.590Z,100479.69
2022-09-22T10:10:41.074Z,100475.47
2022-09-22T10:13:07.869Z,100473.78
2022-09-22T10:15:37.883Z,100468.38
2022-09-22T10:18:34.308Z,100464.78
2022-09-22T10:21:23.099Z,100462.25
2022-09-22T10:23:56.472Z,100468.44
2022-09-22T10:26:29.509Z,100466.75
2022-09-22T10:29:19.881Z,100458.41
2022-09-22T10:32:12.415Z,100454.22
2022-09-22T10:34:50.497Z,100457.13
2022-09-22T10:37:24.772Z,100456.25
2022-09-22T10:39:55.953Z,100458.91
2022-09-22T10:42:46.146Z,100449.28
2022-09-22T10:45:16.546Z,100439.69
2022-09-22T10:47:59.145Z,100437.59
2022-09-22T10:51:07.052Z,100436.09
2022-09-22T10:54:11.196Z,100441.66
2022-09-22T10:56:46.043Z,100435.22
2022-09-22T10:59:45.950Z,100428.47
2022-09-22T11:03:02.450Z,100426.09
2022-09-22T11:06:12.539Z,100436.38
2022-09-22T11:09:29.303Z,100425.81
2022-09-22T11:12:38.815Z,100420.88
2022-09-22T11:15:33.400Z,100429.28
2022-09-22T11:18:21.682Z,100424.28
2022-09-22T11:20:59.661Z,100417.06
2022-09-22T11:24:16.155Z,100412.00
2022-09-22T11:26:57.033Z,100409.19
2022-09-22T11:29:51.718Z,100412.78
2022-09-22T11:32:30.840Z,100409.28
2022-09-22T11:35:22.628Z,100409.53
2022-09-22T11:38:24.726Z,100407.94
2022-09-22T11:41:20.603Z,100400.91
2022-09-22T11:44:36.758Z,100405.03
2022-09-22T11:47:46.652Z,100401.16
2022-09-22T11:50:46.111Z,100391.72
2022-09-22T11:53:30.000Z,100384.28
2022-09-22T11:56:29.350Z,100387.72
2022-09-22T11:59:02.690Z,100382.91
2022-09-22T12:01:37.203Z,100382.97
2022-09-22T12:04:44.046Z,100381.47
2022-09-22T12:07:27.656Z,100378.63
2022-09-22T12:10:05.303Z,100360.03
2022-09-22T12:12:33.506Z,100369.25
2022-09-22T12:15:39.375Z,100361.22
2022-09-22T12:18:14.828Z,100366.66
2022-09-22T12:21:27.910Z,100367.47
2022-09-22T12:23:57.081Z,100361.94
2022-09-22T12:26:53.746Z,100363.22
2022-09-22T12:29:27.566Z,100358.53
2022-09-22T12:31:58.578Z,100352.25
2022-09-22T12:34:39.409Z,100358.13
2022-09-22T12:37:36.082Z,100350.00
2022-09-22T12:40:23.413Z,100348.34
2022-09-22T12:42:53.125Z,100350.81
2022-09-22T12:45:33.055Z,100342.09
2022-09-22T12:48:10.410Z,100332.94
2022-09-22T12:50:41.163Z,100337.31
2022-09-22T12:53:23.420Z,100340.25
2022-09-22T12:56:00.248Z,100336.00
2022-09-22T12:58:30.065Z,100326.91
2022-09-22T13:01:32.448Z,100325.38
2022-09-22T13:04:16.221Z,100328.19
2022-09-22T13:06:43.020Z,100327.59
2022-09-22T13:09:21.366Z,100318.50
2022-09-22T13:12:10.598Z,100318.50
2022-09-22T13:15:08.472Z,100315.47
2022-09-22T13:17:49.929Z,100321.09
2022-09-22T13:20:38.982Z,100316.75
2022-09-22T13:23:11.911Z,100308.63
2022-09-22T13:25:40.048Z,100314.41
2022-09-22T13:28:18.296Z,100312.63
2022-09-22T13:30:48.831Z,100307.78
2022-09-22T13:33:20.057Z,100304.13
2022-09-22T13:35:50.828Z,100302.97
2022-09-22T13:38:17.832Z,100306.94
2022-09-22T13:40:49.256Z,100298.53
2022-09-22T13:43:29.145Z,100293.78
2022-09-22T13:45:59.158Z,100303.84
2022-09-22T13:48:35.416Z,100296.13
2022-09-22T13:51:11.994Z,100290.59
2022-09-22T13:53:42.828Z,100284.09
2022-09-22T13:56:20.760Z,100277.97
2022-09-22T13:58:51.021Z,100283.53
2022-09-22T14:01:21.583Z,100283.19
2022-09-22T14:03:49.755Z,100274.91
2022-09-22T14:06:20.136Z,100268.78
2022-09-22T14:08:50.075Z,100269.97
2022-09-22T14:11:27.302Z,100260.53
2022-09-22T14:13:54.576Z,100264.69
2022-09-22T14:16:33.595Z,100260.28
2022-09-22T14:19:04.255Z,100249.78
2022-09-22T14:21:33.136Z,100260.94
2022-09-22T14:24:01.379Z,100246.16
2022-09-22T14:26:36.272Z,100256.03
2022-09-22T14:29:26.945Z,100239.41
2022-09-22T14:32:02.760Z,100247.41
2022-09-22T14:34:32.817Z,100244.84
2022-09-22T14:37:16.744Z,100238.22
2022-09-22T14:39:44.995Z,100239.19
2022-09-22T14:42:27.398Z,100232.56
2022-09-22T14:45:08.452Z,100240.69
2022-09-22T14:52:32.814Z,100239.41
2022-09-22T14:55:16.985Z,100234.84
2022-09-22T14:57:47.948Z,100232.50
2022-09-22T15:00:35.263Z,100224.28
2022-09-22T15:03:24.023Z,100226.50
2022-09-22T15:05:51.379Z,100214.84
2022-09-22T15:08:28.802Z,100213.16
2022-09-22T15:10:59.284Z,100214.81
2022-09-22T15:13:42.043Z,100206.28
2022-09-22T15:16:33.778Z,100219.00
2022-09-22T15:19:01.190Z,100209.53
2022-09-22T15:21:29.311Z,100216.13
2022-09-22T15:23:59.835Z,100207.25
2022-09-22T15:26:28.815Z,100207.94
2022-09-22T15:29:01.677Z,100204.22
2022-09-22T15:31:29.692Z,100205.09
2022-09-22T15:34:01.217Z,100208.06
2022-09-22T15:36:32.742Z,100205.84
2022-09-22T15:39:19.261Z,100208.31
2022-09-22T15:41:48.104Z,100203.88
2022-09-22T15:44:16.477Z,100204.81
2022-09-22T15:46:48.769Z,100199.81
2022-09-22T15:49:22.453Z,100198.63
2022-09-22T15:51:50.256Z,100204.53
2022-09-22T15:54:20.922Z,100199.28
2022-09-22T15:56:49.798Z,100185.78
2022-09-22T15:59:32.187Z,100188.06
2022-09-22T16:02:00.483Z,100189.34
2022-09-22T16:04:32.902Z,100181.47
2022-09-22T16:07:08.224Z,100183.84
2022-09-22T16:09:35.922Z,100184.00
2022-09-22T16:12:03.293Z,100174.13
2022-09-22T16:14:30.349Z,100179.44
2022-09-22T16:16:57.292Z,100178.25
2022-09-22T16:19:24.227Z,100180.84
2022-09-22T16:21:54.133Z,100188.63
2022-09-22T16:24:22.399Z,100181.00
2022-09-22T16:26:50.144Z,100181.97
2022-09-22T16:29:17.081Z,100178.63
2022-09-22T16:31:44.089Z,100175.84
2022-09-22T16:34:11.755Z,100181.13
2022-09-22T16:36:41.559Z,100173.13
2022-09-22T16:39:08.855Z,100176.09
2022-09-22T16:41:37.155Z,100170.56
2022-09-22T16:44:05.223Z,100169.88
2022-09-22T16:46:35.842Z,100175.63
2022-09-22T16:49:10.290Z,100173.13
2022-09-22T16:51:40.967Z,100182.44
2022-09-22T16:54:14.161Z,100177.97
2022-09-22T16:56:47.793Z,100182.66
2022-09-22T16:59:21.087Z,100175.97
2022-09-22T17:01:48.958Z,100170.91
2022-09-22T17:04:19.307Z,100175.59
2022-09-22T17:06:48.748Z,100173.84
2022-09-22T17:09:16.683Z,100173.66
2022-09-22T17:11:46.271Z,100178.34
2022-09-22T17:14:21.501Z,100174.94
2022-09-22T17:16:52.053Z,100176.09
2022-09-22T17:19:27.686Z,100170.78
2022-09-22T17:21:56.316Z,100173.22
2022-09-22T17:24:25.569Z,100175.66
2022-09-22T17:26:58.548Z,100170.19
2022-09-22T17:29:32.474Z,100177.19
2022-09-22T17:32:05.713Z,100174.41
2022-09-22T17:34:34.824Z,100178.09
2022-09-22T17:37:02.985Z,100168.03
2022-09-22T17:39:32.061Z,100170.44
2022-09-22T17:41:59.206Z,100170.72
2022-09-22T17:44:28.716Z,100165.88
2022-09-22T17:47:14.608Z,100166.38
2022-09-22T17:49:59.979Z,100165.44
2022-09-22T17:52:33.081Z,100164.31
2022-09-22T17:55:09.473Z,100177.22
2022-09-22T17:57:42.698Z,100168.81
2022-09-22T18:00:21.070Z,100170.97
2022-09-22T18:02:50.454Z,100175.78
2022-09-22T18:05:25.336Z,100177.66
2022-09-22T18:07:57.476Z,100169.66
2022-09-22T18:10:32.328Z,100173.19
2022-09-22T18:13:01.570Z,100167.03
2022-09-22T18:15:29.073Z,100163.56
2022-09-22T18:17:57.977Z,100168.75
2022-09-22T18:20:27.311Z,100171.31
2022-09-22T18:22:55.179Z,100174.63
2022-09-22T18:25:25.569Z,100172.56
2022-09-22T18:27:53.474Z,100171.59
2022-09-22T18:30:20.558Z,100167.66
2022-09-22T18:32:48.808Z,100171.81
2022-09-22T18:35:16.098Z,100173.50
2022-09-22T18:37:43.142Z,100169.38
2022-09-22T18:40:12.266Z,100177.25
2022-09-22T18:42:39.659Z,100171.50
2022-09-22T18:45:07.388Z,100169.44
2022-09-22T18:47:40.750Z,100171.94
2022-09-22T18:50:08.749Z,100173.19
2022-09-22T18:52:37.135Z,100174.84
2022-09-22T18:55:04.865Z,100177.16
2022-09-22T18:57:31.807Z,100179.44
2022-09-22T19:00:00.173Z,100180.88
2022-09-22T19:02:27.373Z,100187.72
2022-09-22T19:04:54.578Z,100194.31
2022-09-22T19:07:44.211Z,100192.03
2022-09-22T19:10:22.318Z,100196.38
2022-09-22T19:12:49.568Z,100189.81
2022-09-22T19:15:18.817Z,100188.56
2022-09-22T19:17:49.283Z,100188.13
2022-09-22T19:20:23.702Z,100188.78
2022-09-22T19:22:52.167Z,100188.38
2022-09-22T19:25:21.361Z,100192.31
2022-09-22T19:27:49.606Z,100190.03
2022-09-22T19:30:20.515Z,100184.03
2022-09-22T19:32:50.376Z,100191.69
2022-09-22T19:35:17.410Z,100184.25
2022-09-22T19:37:44.425Z,100193.53
2022-09-22T19:40:18.708Z,100189.41
2022-09-22T19:42:47.017Z,100178.06
2022-09-22T19:45:14.573Z,100183.66
2022-09-22T19:47:41.940Z,100185.91
2022-09-22T19:50:09.599Z,100172.91
2022-09-22T19:52:38.080Z,100181.38
2022-09-22T19:55:11.336Z,100186.50
2022-09-22T19:57:41.545Z,100180.53
2022-09-22T20:00:17.911Z,100182.78
2022-09-22T20:02:45.388Z,100173.31
2022-09-22T20:05:22.174Z,100168.38
2022-09-22T20:07:49.869Z,100172.91
2022-09-22T20:10:19.211Z,100176.81
2022-09-22T20:12:46.356Z,100174.34
2022-09-22T20:15:15.066Z,100178.28
2022-09-22T20:17:46.079Z,100169.56
2022-09-22T20:20:19.823Z,100171.84
2022-09-22T20:22:48.358Z,100170.59
2022-09-22T20:25:28.982Z,100162.16
2022-09-22T20:27:56.154Z,100166.88
2022-09-22T20:30:23.174Z,100162.75
2022-09-22T20:32:51.029Z,100168.34
2022-09-22T20:35:21.623Z,100155.97
2022-09-22T20:37:48.657Z,100157.16
2022-09-22T20:40:21.322Z,100161.72
2022-09-22T20:42:53.082Z,100161.72
2022-09-22T20:45:25.124Z,100151.41
2022-09-22T20:47:52.333Z,100155.09
2022-09-22T20:50:21.252Z,100151.78
2022-09-22T20:52:48.293Z,100151.19
2022-09-22T20:55:15.475Z,100147.88
2022-09-22T20:57:42.639Z,100152.59
2022-09-22T21:00:10.398Z,100150.97
2022-09-22T21:02:37.429Z,100140.22
2022-09-22T21:05:04.750Z,100144.78
2022-09-22T21:07:32.804Z,100145.59
2022-09-22T21:10:18.129Z,100151.78
2022-09-22T21:12:45.326Z,100144.78
2022-09-22T21:15:12.431Z,100136.91
2022-09-22T21:17:43.281Z,100141.63
2022-09-22T21:20:10.990Z,100142.66
2022-09-22T21:22:37.922Z,100142.03
2022-09-22T21:25:05.408Z,100144.09
2022-09-22T21:27:32.338Z,100127.38
2022-09-22T21:29:59.256Z,100135.84
2022-09-22T21:32:26.271Z,100136.88
2022-09-22T21:34:53.251Z,100125.53
2022-09-22T21:37:20.948Z,100125.72
2022-09-22T21:39:47.915Z,100125.91
2022-09-22T21:42:15.681Z,100121.81
2022-09-22T21:44:42.689Z,100123.66
2022-09-22T21:47:11.124Z,100117.66
2022-09-22T21:49:38.425Z,100126.94
2022-09-22T21:52:05.485Z,100125.28
2022-09-22T21:54:32.407Z,100131.47
2022-09-22T21:56:59.371Z,100121.13
2022-09-22T21:59:26.301Z,100113.09
2022-09-22T22:01:53.257Z,100114.13
2022-09-22T22:04:20.222Z,100110.00
2022-09-22T22:06:47.330Z,100102.19
2022-09-22T22:09:17.541Z,100105.03
2022-09-22T22:11:49.990Z,100111.63
2022-09-22T22:14:20.393Z,100098.66
2022-09-22T22:16:53.288Z,100092.66
2022-09-22T22:19:24.708Z,100103.59
2022-09-22T22:21:51.961Z,100099.47
2022-09-22T22:24:28.230Z,100098.81
2022-09-22T22:27:09.633Z,100102.94
2022-09-22T22:29:38.671Z,100098.78
2022-09-22T22:32:09.015Z,100095.50
2022-09-22T22:34:36.334Z,100097.16
2022-09-22T22:37:06.898Z,100093.03
2022-09-22T22:39:33.822Z,100092.38
2022-09-22T22:42:00.734Z,100097.13
2022-09-22T22:44:27.888Z,100090.94
2022-09-22T22:46:54.902Z,100101.84
2022-09-22T22:49:21.872Z,100090.53
2022-09-22T22:51:49.765Z,100095.06
2022-09-22T22:54:16.704Z,100097.91
2022-09-22T22:56:45.848Z,100098.94
2022-09-22T22:59:15.973Z,100091.94
2022-09-22T23:01:44.138Z,100089.69
2022-09-22T23:04:12.038Z,100085.31
2022-09-22T23:06:43.698Z,100087.38
2022-09-22T23:09:15.525Z,100086.75
2022-09-22T23:11:43.959Z,100087.97
2022-09-22T23:14:12.935Z,100092.50
2022-09-22T23:16:46.405Z,100088.16
2022-09-22T23:19:16.837Z,100080.34
2022-09-22T23:21:45.178Z,100079.53
2022-09-22T23:24:18.743Z,100079.72
2022-09-22T23:26:46.842Z,100073.56
2022-09-22T23:29:13.988Z,100078.06
2022-09-22T23:31:40.998Z,100077.22
2022-09-22T23:34:07.973Z,100067.53
2022-09-22T23:36:34.960Z,100066.72
2022-09-22T23:39:03.749Z,100065.91
2022-09-22T23:41:36.463Z,100066.94
2022-09-22T23:44:08.329Z,100055.59
2022-09-22T23:46:35.466Z,100063.63
2022-09-22T23:49:02.636Z,100067.31
2022-09-22T23:51:30.354Z,100059.47
2022-09-22T23:53:58.443Z,100062.97
2022-09-22T23:56:25.530Z,100069.38
2022-09-22T23:58:52.885Z,100064.84
